Trinity — WDC2625 — position and weather

sailwx.info

Track history (hours):
 
Tides and Currents Weather Stations Pressure Air Temp Water Temp Dewpoint Dewpoint Depression Visibility Wind Speed Wind Dir Waves Ship Positions

Trinity

Owner: Kirby Inland Marine, LP, Houston, TX. More information available from US FCC via Universal Licensing System and Coast Guard Vessel Documentation Center.

Last reported at 2017-Oct-19 04:24 UTC. Time now 2017-Oct-20 17:49 UTC.
Position N 29°46' W 095°05'.

Length 205 m; draft 2.4 m.

Type: . MMSI: 366995730.

Date/timePositionNaut miles runAvg speedWind from/ knotsBaromVisibWave heightAir tempDewpointWater temp
2017-Oct-19 04:24N 29°46' W 095°05'2 3.8
2017-Oct-19 03:59N 29°45' W 095°04'3 5.3
2017-Oct-19 03:29N 29°43' W 095°01'3 5.8
2017-Oct-19 02:58N 29°41' W 094°59'3 6.2
2017-Oct-19 02:29N 29°38' W 094°58'3 6.1
2017-Oct-19 02:00N 29°35' W 094°56'3 6.3
2017-Oct-19 01:30N 29°33' W 094°54'  
2017-Oct-12 03:10N 29°30' W 094°53'1 7.6
2017-Oct-12 03:00N 29°31' W 094°53'4 7.9
2017-Oct-12 02:30N 29°35' W 094°56'4 8.2
2017-Oct-12 02:00N 29°38' W 094°58'4 8.3
2017-Oct-12 01:30N 29°42' W 095°00'4 7.9
2017-Oct-12 01:00N 29°45' W 095°04'2 0.0
2017-Oct-10 13:28N 29°46' W 095°05'2 0.1
2017-Oct-09 12:27N 29°46' W 095°07'  
Track history (hours):
 
Tides and Currents Weather Stations Pressure Air Temp Water Temp Dewpoint Dewpoint Depression Visibility Wind Speed Wind Dir Waves Ship Positions

Trinity

Owner: Kirby Inland Marine, LP, Houston, TX. More information available from US FCC via Universal Licensing System and Coast Guard Vessel Documentation Center.

Last reported at 2017-Oct-19 04:24 UTC. Time now 2017-Oct-20 17:49 UTC.
Position N 29°46' W 095°05'.

Length 205 m; draft 2.4 m.

Type: . MMSI: 366995730.

Date/timePositionNaut miles runAvg speedWind from/ knotsBaromVisibWave heightAir tempDewpointWater temp
2017-Oct-19 04:24N 29°46' W 095°05'2 3.8
2017-Oct-19 03:59N 29°45' W 095°04'3 5.3
2017-Oct-19 03:29N 29°43' W 095°01'3 5.8
2017-Oct-19 02:58N 29°41' W 094°59'3 6.2
2017-Oct-19 02:29N 29°38' W 094°58'3 6.1
2017-Oct-19 02:00N 29°35' W 094°56'3 6.3
2017-Oct-19 01:30N 29°33' W 094°54'  
2017-Oct-12 03:10N 29°30' W 094°53'1 7.6
2017-Oct-12 03:00N 29°31' W 094°53'4 7.9
2017-Oct-12 02:30N 29°35' W 094°56'4 8.2
2017-Oct-12 02:00N 29°38' W 094°58'4 8.3
2017-Oct-12 01:30N 29°42' W 095°00'4 7.9
2017-Oct-12 01:00N 29°45' W 095°04'2 0.0
2017-Oct-10 13:28N 29°46' W 095°05'2 0.1
2017-Oct-09 12:27N 29°46' W 095°07'  

Dump ship's entire track history